createdAt,value
2018-12-29T00:01:27.359Z,101081.77
2018-12-29T00:03:56.108Z,101068.84
2018-12-29T00:06:24.794Z,101068.84
2018-12-29T00:08:53.988Z,101083.56
2018-12-29T00:11:23.033Z,101090.34
2018-12-29T00:13:51.416Z,101097.20
2018-12-29T00:16:19.811Z,101097.20
2018-12-29T00:18:48.201Z,101091.22
2018-12-29T00:21:16.602Z,101085.73
2018-12-29T00:23:44.962Z,101091.00
2018-12-29T00:26:13.366Z,101091.00
2018-12-29T00:28:41.739Z,101080.57
2018-12-29T00:31:10.142Z,101082.16
2018-12-29T00:33:38.584Z,101089.92
2018-12-29T00:36:07.361Z,101100.61
2018-12-29T00:38:35.805Z,101100.61
2018-12-29T00:41:04.344Z,101093.00
2018-12-29T00:43:32.776Z,101093.34
2018-12-29T00:46:01.173Z,101104.24
2018-12-29T00:48:29.614Z,101095.05
2018-12-29T00:50:58.009Z,101089.92
2018-12-29T00:53:26.364Z,101097.34
2018-12-29T00:55:54.775Z,101100.28
2018-12-29T00:58:23.133Z,101096.44
2018-12-29T01:00:51.538Z,101094.80
2018-12-29T01:03:19.916Z,101097.36
2018-12-29T01:05:48.325Z,101098.01
2018-12-29T01:08:16.707Z,101098.01
2018-12-29T01:10:45.135Z,101093.28
2018-12-29T01:13:13.621Z,101094.10
2018-12-29T01:15:41.999Z,101092.13
2018-12-29T01:18:10.410Z,101084.43
2018-12-29T01:20:38.841Z,101086.59
2018-12-29T01:23:07.251Z,101088.33
2018-12-29T01:25:35.766Z,101090.34
2018-12-29T01:28:04.182Z,101090.70
2018-12-29T01:30:32.523Z,101093.86
2018-12-29T01:33:00.930Z,101085.31
2018-12-29T01:35:29.301Z,101085.31
2018-12-29T01:37:57.698Z,101093.95
2018-12-29T01:40:26.131Z,101089.60
2018-12-29T01:42:54.610Z,101096.04
2018-12-29T01:45:23.033Z,101096.38
2018-12-29T01:47:51.428Z,101097.30
2018-12-29T01:50:19.807Z,101107.02
2018-12-29T01:52:48.288Z,101102.22
2018-12-29T01:55:16.656Z,101095.34
2018-12-29T01:57:45.071Z,101108.80
2018-12-29T02:00:13.506Z,101111.79
2018-12-29T02:02:42.001Z,101108.33
2018-12-29T02:05:12.739Z,101115.70
2018-12-29T02:07:41.141Z,101115.70
2018-12-29T02:10:09.592Z,101109.61
2018-12-29T02:12:38.028Z,101114.41
2018-12-29T02:15:06.454Z,101119.94
2018-12-29T02:17:34.849Z,101117.38
2018-12-29T02:20:03.976Z,101125.66
2018-12-29T02:22:32.363Z,101125.52
2018-12-29T02:25:00.729Z,101126.86
2018-12-29T02:27:29.095Z,101116.47
2018-12-29T02:29:57.491Z,101105.74
2018-12-29T02:32:25.853Z,101096.80
2018-12-29T02:34:54.245Z,101092.89
2018-12-29T02:37:22.617Z,101095.09
2018-12-29T02:39:51.018Z,101093.33
2018-12-29T02:42:19.461Z,101096.92
2018-12-29T02:44:47.889Z,101089.20
2018-12-29T02:47:16.225Z,101092.16
2018-12-29T02:49:44.623Z,101099.19
2018-12-29T02:52:12.999Z,101099.19
2018-12-29T02:54:41.531Z,101111.60
2018-12-29T02:57:09.901Z,101106.06
2018-12-29T02:59:38.381Z,101095.20
2018-12-29T03:02:06.754Z,101095.20
2018-12-29T03:04:35.164Z,101099.53
2018-12-29T03:07:03.542Z,101091.36
2018-12-29T03:09:31.933Z,101094.01
2018-12-29T03:12:00.545Z,101083.60
2018-12-29T03:14:29.021Z,101083.60
2018-12-29T03:16:57.500Z,101087.06
2018-12-29T03:19:25.976Z,101077.20
2018-12-29T03:21:54.406Z,101081.11
2018-12-29T03:24:22.838Z,101075.44
2018-12-29T03:26:51.226Z,101071.14
2018-12-29T03:29:19.715Z,101074.96
2018-12-29T03:31:48.153Z,101074.49
2018-12-29T03:34:16.549Z,101074.52
2018-12-29T03:36:44.911Z,101070.24
2018-12-29T03:39:13.402Z,101074.45
2018-12-29T03:41:41.748Z,101067.27
2018-12-29T03:44:10.127Z,101064.70
2018-12-29T03:46:38.533Z,101063.84
2018-12-29T03:49:06.900Z,101071.16
2018-12-29T03:51:35.297Z,101067.66
2018-12-29T03:54:03.671Z,101064.27
2018-12-29T03:56:32.156Z,101076.69
2018-12-29T03:59:00.582Z,101072.39
2018-12-29T04:01:28.985Z,101071.68
2018-12-29T04:03:57.368Z,101067.39
2018-12-29T04:06:25.836Z,101077.45
2018-12-29T04:09:29.308Z,101073.72
2018-12-29T04:11:57.709Z,101073.72
2018-12-29T04:14:26.091Z,101074.16
2018-12-29T04:16:54.482Z,101070.69
2018-12-29T04:19:22.856Z,101076.75
2018-12-29T04:21:51.264Z,101081.81
2018-12-29T04:24:19.621Z,101092.55
2018-12-29T04:26:48.020Z,101098.33
2018-12-29T04:29:16.376Z,101098.33
2018-12-29T04:31:44.851Z,101092.62
2018-12-29T04:34:13.308Z,101103.03
2018-12-29T04:36:41.712Z,101109.63
2018-12-29T04:39:10.183Z,101117.42
2018-12-29T04:41:38.647Z,101110.55
2018-12-29T04:44:07.030Z,101110.55
2018-12-29T04:46:35.425Z,101109.68
2018-12-29T04:49:03.782Z,101106.76
2018-12-29T04:51:32.195Z,101106.61
2018-12-29T04:54:00.554Z,101105.34
2018-12-29T04:56:29.031Z,101116.47
2018-12-29T04:58:57.476Z,101113.91
2018-12-29T05:01:25.985Z,101113.62
2018-12-29T05:03:54.309Z,101113.62
2018-12-29T05:06:23.496Z,101109.91
2018-12-29T05:08:51.916Z,101106.73
2018-12-29T05:11:20.245Z,101103.88
2018-12-29T05:13:48.651Z,101111.59
2018-12-29T05:16:17.089Z,101111.98
2018-12-29T05:18:45.483Z,101109.95
2018-12-29T05:21:13.851Z,101109.95
2018-12-29T05:23:42.253Z,101116.00
2018-12-29T05:26:10.618Z,101128.02
2018-12-29T05:28:39.011Z,101120.55
2018-12-29T05:31:07.447Z,101117.23
2018-12-29T05:33:35.851Z,101118.23
2018-12-29T05:36:04.216Z,101118.92
2018-12-29T05:38:32.624Z,101115.36
2018-12-29T05:41:01.053Z,101123.13
2018-12-29T05:43:29.444Z,101120.09
2018-12-29T05:45:57.817Z,101124.87
2018-12-29T05:48:26.233Z,101115.85
2018-12-29T05:50:54.681Z,101117.16
2018-12-29T05:53:23.076Z,101117.16
2018-12-29T05:55:51.530Z,101102.44
2018-12-29T05:58:19.915Z,101105.10
2018-12-29T06:00:48.342Z,101109.41
2018-12-29T06:03:16.753Z,101100.40
2018-12-29T06:05:45.171Z,101102.48
2018-12-29T06:08:13.650Z,101099.94
2018-12-29T06:10:42.016Z,101087.97
2018-12-29T06:13:10.414Z,101082.66
2018-12-29T06:15:38.868Z,101083.61
2018-12-29T06:18:07.237Z,101086.72
2018-12-29T06:20:35.777Z,101087.66
2018-12-29T06:23:04.278Z,101092.86
2018-12-29T06:25:32.750Z,101100.16
2018-12-29T06:28:01.112Z,101094.95
2018-12-29T06:30:29.595Z,101104.03
2018-12-29T06:32:57.954Z,101108.51
2018-12-29T06:35:26.351Z,101111.44
2018-12-29T06:37:54.725Z,101126.45
2018-12-29T06:40:23.197Z,101138.89
2018-12-29T06:42:51.622Z,101137.60
2018-12-29T06:45:20.027Z,101137.58
2018-12-29T06:47:48.402Z,101153.52
2018-12-29T06:50:16.803Z,101148.84
2018-12-29T06:52:45.205Z,101157.02
2018-12-29T06:55:13.655Z,101152.34
2018-12-29T06:57:42.023Z,101158.83
2018-12-29T07:00:10.498Z,101146.84
2018-12-29T07:02:38.863Z,101148.12
2018-12-29T07:05:07.385Z,101163.58
2018-12-29T07:07:35.814Z,101158.52
2018-12-29T07:10:04.339Z,101163.72
2018-12-29T07:12:32.734Z,101166.20
2018-12-29T07:15:01.089Z,101169.66
2018-12-29T07:17:29.492Z,101169.20
2018-12-29T07:19:57.850Z,101172.18
2018-12-29T07:22:26.333Z,101177.92
2018-12-29T07:24:54.696Z,101179.19
2018-12-29T07:27:23.174Z,101180.87
2018-12-29T07:29:51.535Z,101180.77
2018-12-29T07:32:19.927Z,101190.34
2018-12-29T07:34:48.295Z,101186.12
2018-12-29T07:37:16.700Z,101189.16
2018-12-29T07:39:45.130Z,101193.00
2018-12-29T07:42:13.535Z,101200.80
2018-12-29T07:44:41.910Z,101202.92
2018-12-29T07:47:10.314Z,101207.56
2018-12-29T07:49:38.745Z,101201.69
2018-12-29T07:52:07.169Z,101207.75
2018-12-29T07:54:35.603Z,101219.68
2018-12-29T07:57:04.079Z,101223.55
2018-12-29T07:59:32.513Z,101232.23
2018-12-29T08:02:00.933Z,101225.33
2018-12-29T08:04:29.362Z,101233.00
2018-12-29T08:06:57.817Z,101227.45
2018-12-29T08:09:26.193Z,101227.94
2018-12-29T08:11:54.578Z,101231.00
2018-12-29T08:14:22.965Z,101226.13
2018-12-29T08:16:56.852Z,101226.64
2018-12-29T08:19:21.532Z,101223.58
2018-12-29T08:21:49.948Z,101224.47
2018-12-29T08:24:18.313Z,101217.56
2018-12-29T08:26:46.713Z,101215.52
2018-12-29T08:29:15.069Z,101210.34
2018-12-29T08:31:43.432Z,101210.92
2018-12-29T08:34:11.906Z,101217.80
2018-12-29T08:36:40.263Z,101213.59
2018-12-29T08:39:08.739Z,101217.86
2018-12-29T08:41:37.185Z,101226.44
2018-12-29T08:44:05.576Z,101221.67
2018-12-29T08:46:33.934Z,101223.52
2018-12-29T08:49:02.392Z,101227.88
2018-12-29T08:51:30.753Z,101227.75
2018-12-29T08:53:59.147Z,101223.58
2018-12-29T08:56:27.669Z,101227.09
2018-12-29T08:58:56.132Z,101224.86
2018-12-29T09:01:24.449Z,101231.90
2018-12-29T09:03:52.849Z,101226.80
2018-12-29T09:06:21.217Z,101224.06
2018-12-29T09:08:49.614Z,101223.69
2018-12-29T09:11:18.052Z,101230.52
2018-12-29T09:13:46.448Z,101227.47
2018-12-29T09:16:14.813Z,101229.56
2018-12-29T09:18:49.583Z,101226.19
2018-12-29T09:21:13.299Z,101226.34
2018-12-29T09:23:41.724Z,101217.72
2018-12-29T09:26:10.109Z,101213.87
2018-12-29T09:28:38.554Z,101208.28
2018-12-29T09:31:06.909Z,101212.55
2018-12-29T09:33:35.304Z,101216.48
2018-12-29T09:36:03.659Z,101222.88
2018-12-29T09:38:32.071Z,101223.34
2018-12-29T09:41:00.433Z,101216.48
2018-12-29T09:43:28.827Z,101212.21
2018-12-29T09:45:57.251Z,101218.70
2018-12-29T09:48:25.733Z,101216.99
2018-12-29T09:50:54.109Z,101220.36
2018-12-29T09:53:22.555Z,101230.34
2018-12-29T09:55:51.089Z,101220.48
2018-12-29T09:58:19.506Z,101220.49
2018-12-29T10:00:47.887Z,101217.12
2018-12-29T10:03:16.253Z,101199.41
2018-12-29T10:05:44.642Z,101204.52
2018-12-29T10:08:13.005Z,101204.05
2018-12-29T10:10:41.415Z,101196.36
2018-12-29T10:13:09.829Z,101192.84
2018-12-29T10:15:38.432Z,101189.52
2018-12-29T10:18:07.539Z,101188.15
2018-12-29T10:20:36.077Z,101182.11
2018-12-29T10:23:04.548Z,101183.85
2018-12-29T10:25:33.587Z,101184.32
2018-12-29T10:28:01.963Z,101192.64
2018-12-29T10:30:30.924Z,101188.98
2018-12-29T10:32:59.372Z,101189.02
2018-12-29T10:35:27.846Z,101181.66
2018-12-29T10:37:56.207Z,101194.29
2018-12-29T10:40:24.629Z,101189.03
2018-12-29T10:42:52.991Z,101194.71
2018-12-29T10:45:21.397Z,101197.38
2018-12-29T10:47:49.742Z,101200.33
2018-12-29T10:50:18.217Z,101197.34
2018-12-29T10:52:48.648Z,101191.33
2018-12-29T10:55:17.578Z,101194.46
2018-12-29T10:57:46.047Z,101196.63
2018-12-29T11:00:14.446Z,101197.03
2018-12-29T11:02:42.976Z,101195.70
2018-12-29T11:05:11.334Z,101187.14
2018-12-29T11:07:39.809Z,101169.54
2018-12-29T11:10:08.170Z,101165.25
2018-12-29T11:12:36.567Z,101166.55
2018-12-29T11:15:05.472Z,101176.48
2018-12-29T11:17:33.940Z,101176.43
2018-12-29T11:20:02.300Z,101167.28
2018-12-29T11:22:30.767Z,101152.20
2018-12-29T11:24:59.132Z,101149.66
2018-12-29T11:27:27.636Z,101144.10
2018-12-29T11:29:55.996Z,101141.52
2018-12-29T11:32:24.445Z,101131.23
2018-12-29T11:34:52.888Z,101123.91
2018-12-29T11:37:21.265Z,101124.78
2018-12-29T11:39:49.625Z,101143.28
2018-12-29T11:42:18.084Z,101135.89
2018-12-29T11:44:48.066Z,101133.80
2018-12-29T11:47:16.543Z,101135.56
2018-12-29T11:49:44.915Z,101131.66
2018-12-29T11:52:13.311Z,101120.10
2018-12-29T11:54:41.687Z,101116.26
2018-12-29T11:57:10.622Z,101124.91
2018-12-29T11:59:39.054Z,101109.75
2018-12-29T12:02:07.525Z,101104.63
2018-12-29T12:04:35.884Z,101095.56
2018-12-29T12:07:04.414Z,101086.05
2018-12-29T12:09:32.784Z,101087.31
2018-12-29T12:12:01.175Z,101073.53
2018-12-29T12:14:29.537Z,101060.20
2018-12-29T12:16:58.108Z,101057.20
2018-12-29T12:19:26.474Z,101053.31
2018-12-29T12:21:54.901Z,101053.72
2018-12-29T12:24:23.251Z,101044.25
2018-12-29T12:26:51.686Z,101035.20
2018-12-29T12:29:21.277Z,101030.45
2018-12-29T12:31:49.719Z,101023.00
2018-12-29T12:34:18.258Z,101026.03
2018-12-29T12:36:46.697Z,101029.48
2018-12-29T12:39:15.156Z,101030.34
2018-12-29T12:41:43.528Z,101031.68
2018-12-29T12:44:11.928Z,101032.98
2018-12-29T12:46:40.668Z,101014.02
2018-12-29T12:49:09.567Z,101014.47
2018-12-29T12:51:39.986Z,101017.02
2018-12-29T12:54:08.134Z,101023.92
2018-12-29T12:56:36.804Z,101017.80
2018-12-29T12:59:05.474Z,101029.48
2018-12-29T13:01:33.836Z,101042.82
2018-12-29T13:04:02.368Z,101049.72
2018-12-29T13:06:30.776Z,101060.11
2018-12-29T13:08:59.136Z,101061.39
2018-12-29T13:11:27.886Z,101060.95
2018-12-29T13:13:56.279Z,101055.85
2018-12-29T13:16:24.644Z,101064.86
2018-12-29T13:18:53.063Z,101059.69
2018-12-29T13:21:21.408Z,101053.21
2018-12-29T13:23:49.987Z,101063.93
2018-12-29T13:26:18.342Z,101079.02
2018-12-29T13:28:46.729Z,101089.89
2018-12-29T13:31:15.444Z,101091.59
2018-12-29T13:33:43.809Z,101086.41
2018-12-29T13:36:13.785Z,101083.86
2018-12-29T13:38:42.144Z,101079.56
2018-12-29T13:41:10.542Z,101066.68
2018-12-29T13:43:38.924Z,101069.73
2018-12-29T13:46:07.322Z,101072.28
2018-12-29T13:48:36.062Z,101070.09
2018-12-29T13:51:04.517Z,101069.19
2018-12-29T13:53:32.962Z,101072.22
2018-12-29T13:56:01.353Z,101067.47
2018-12-29T13:58:33.953Z,101083.01
2018-12-29T14:01:02.352Z,101066.59
2018-12-29T14:03:30.711Z,101069.98
2018-12-29T14:05:59.111Z,101079.45
2018-12-29T14:08:27.466Z,101084.62
2018-12-29T14:10:56.095Z,101077.73
2018-12-29T14:13:24.458Z,101070.81
2018-12-29T14:15:53.027Z,101074.23
2018-12-29T14:18:28.002Z,101073.34
2018-12-29T14:20:51.684Z,101073.36
2018-12-29T14:23:20.249Z,101060.44
2018-12-29T14:25:48.645Z,101056.14
2018-12-29T14:28:17.017Z,101046.27
2018-12-29T14:30:45.588Z,101054.03
2018-12-29T14:33:14.267Z,101063.11
2018-12-29T14:35:42.662Z,101060.95
2018-12-29T14:38:11.360Z,101051.91
2018-12-29T14:40:41.191Z,101051.48
2018-12-29T14:43:09.851Z,101062.25
2018-12-29T14:45:38.211Z,101061.44
2018-12-29T14:48:07.309Z,101048.92
2018-12-29T14:50:35.754Z,101026.94
2018-12-29T14:53:04.215Z,101019.22
2018-12-29T14:55:32.642Z,101013.22
2018-12-29T14:58:01.110Z,101007.59
2018-12-29T15:00:29.853Z,101008.88
2018-12-29T15:02:58.247Z,100993.79
2018-12-29T15:05:26.979Z,100984.73
2018-12-29T15:07:55.453Z,100980.42
2018-12-29T15:10:23.826Z,100984.71
2018-12-29T15:12:52.219Z,100967.91
2018-12-29T15:15:20.652Z,100950.65
2018-12-29T15:17:49.125Z,100946.79
2018-12-29T15:20:17.968Z,100948.50
2018-12-29T15:22:46.861Z,100932.53
2018-12-29T15:25:15.454Z,100941.13
2018-12-29T15:27:44.444Z,100940.25
2018-12-29T15:30:12.874Z,100944.11
2018-12-29T15:32:41.283Z,100964.88
2018-12-29T15:35:10.115Z,100958.80
2018-12-29T15:37:38.504Z,100966.16
2018-12-29T15:40:08.198Z,101001.12
2018-12-29T15:42:36.647Z,101016.20
2018-12-29T15:45:06.045Z,101015.35
2018-12-29T15:47:34.441Z,101027.86
2018-12-29T15:50:02.807Z,101033.87
2018-12-29T15:52:31.199Z,101034.36
2018-12-29T15:54:59.641Z,101031.30
2018-12-29T15:57:29.503Z,101019.64
2018-12-29T15:59:58.130Z,101001.12
2018-12-29T16:02:26.661Z,100998.52
2018-12-29T16:04:55.980Z,100996.78
2018-12-29T16:07:26.168Z,100998.03
2018-12-29T16:09:54.558Z,101012.28
2018-12-29T16:12:27.568Z,101014.88
2018-12-29T16:14:57.399Z,101016.63
2018-12-29T16:17:25.757Z,101000.25
2018-12-29T16:19:54.527Z,100994.64
2018-12-29T16:22:23.268Z,100997.24
2018-12-29T16:24:51.920Z,100982.56
2018-12-29T16:27:20.561Z,100978.70
2018-12-29T16:29:49.364Z,100978.28
2018-12-29T16:32:17.723Z,100992.55
2018-12-29T16:34:46.124Z,100997.31
2018-12-29T16:37:14.623Z,100993.41
2018-12-29T16:39:43.508Z,100986.07
2018-12-29T16:42:11.889Z,100979.17
2018-12-29T16:44:40.301Z,100977.02
2018-12-29T16:47:08.737Z,100966.66
2018-12-29T16:49:38.556Z,100972.67
2018-12-29T16:52:07.070Z,100968.38
2018-12-29T16:54:37.412Z,100960.18
2018-12-29T16:57:05.719Z,100950.27
2018-12-29T16:59:34.880Z,100947.67
2018-12-29T17:02:03.207Z,100937.75
2018-12-29T17:04:31.623Z,100932.14
2018-12-29T17:06:59.976Z,100948.56
2018-12-29T17:09:28.738Z,100958.01
2018-12-29T17:11:57.259Z,100974.00
2018-12-29T17:14:25.675Z,100977.91
2018-12-29T17:16:54.031Z,100961.05
2018-12-29T17:19:23.023Z,100967.55
2018-12-29T17:21:52.295Z,100968.85
2018-12-29T17:24:20.737Z,100966.27
2018-12-29T17:26:49.128Z,100972.73
2018-12-29T17:29:17.566Z,100961.55
2018-12-29T17:31:45.963Z,100958.94
2018-12-29T17:34:14.396Z,100953.75
2018-12-29T17:36:42.790Z,100954.22
2018-12-29T17:39:11.151Z,100936.08
2018-12-29T17:41:41.207Z,100939.98
2018-12-29T17:44:09.741Z,100950.34
2018-12-29T17:46:38.867Z,100944.71
2018-12-29T17:49:07.609Z,100945.99
2018-12-29T17:51:36.103Z,100942.09
2018-12-29T17:54:04.459Z,100940.81
2018-12-29T17:56:33.228Z,100952.46
2018-12-29T17:59:01.690Z,100955.51
2018-12-29T18:01:30.236Z,100964.98
2018-12-29T18:03:58.600Z,100956.78
2018-12-29T18:06:27.009Z,100958.52
2018-12-29T18:08:55.716Z,100961.55
2018-12-29T18:11:24.219Z,100961.53
2018-12-29T18:13:52.596Z,100968.86
2018-12-29T18:16:22.201Z,100960.24
2018-12-29T18:18:50.638Z,100957.64
2018-12-29T18:21:19.030Z,100963.25
2018-12-29T18:23:47.385Z,100967.98
2018-12-29T18:26:16.416Z,100955.04
2018-12-29T18:28:44.964Z,100959.36
2018-12-29T18:31:13.699Z,100981.81
2018-12-29T18:33:42.132Z,100991.71
2018-12-29T18:36:10.685Z,100980.06
2018-12-29T18:38:39.622Z,100971.88
2018-12-29T18:41:08.153Z,100974.89
2018-12-29T18:43:36.815Z,100958.94
2018-12-29T18:46:07.597Z,100965.82
2018-12-29T18:48:36.640Z,100961.94
2018-12-29T18:51:08.964Z,100952.02
2018-12-29T18:53:37.769Z,100948.14
2018-12-29T18:56:08.049Z,100939.11
2018-12-29T18:58:37.065Z,100947.30
2018-12-29T19:01:06.015Z,100957.67
2018-12-29T19:03:37.082Z,100955.92
2018-12-29T19:06:05.850Z,100945.59
2018-12-29T19:08:34.702Z,100937.38
2018-12-29T19:11:03.866Z,100933.49
2018-12-29T19:13:33.965Z,100934.35
2018-12-29T19:16:03.616Z,100935.23
2018-12-29T19:18:32.607Z,100936.52
2018-12-29T19:21:01.136Z,100926.17
2018-12-29T19:23:31.681Z,100923.58
2018-12-29T19:26:00.860Z,100922.28
2018-12-29T19:28:31.274Z,100924.44
2018-12-29T19:31:00.000Z,100917.52
2018-12-29T19:33:29.244Z,100911.48
2018-12-29T19:35:59.896Z,100911.48
2018-12-29T19:38:28.913Z,100911.05
2018-12-29T19:40:57.375Z,100908.90
2018-12-29T19:43:26.647Z,100904.16
2018-12-29T19:45:56.670Z,100897.66
2018-12-29T19:48:27.231Z,100897.25
2018-12-29T19:50:56.189Z,100889.03
2018-12-29T19:53:25.338Z,100890.77
2018-12-29T19:55:54.164Z,100886.00
2018-12-29T19:58:22.676Z,100891.18
2018-12-29T20:00:51.125Z,100893.33
2018-12-29T20:03:22.709Z,100889.88
2018-12-29T20:05:54.415Z,100891.19
2018-12-29T20:08:25.305Z,100892.48
2018-12-29T20:10:54.765Z,100903.70
2018-12-29T20:13:23.334Z,100892.89
2018-12-29T20:15:51.782Z,100892.03
2018-12-29T20:18:20.226Z,100883.81
2018-12-29T20:20:48.693Z,100879.94
2018-12-29T20:23:17.306Z,100876.49
2018-12-29T20:25:45.837Z,100881.23
2018-12-29T20:28:14.722Z,100894.19
2018-12-29T20:30:43.192Z,100889.89
2018-12-29T20:33:11.566Z,100889.85
2018-12-29T20:35:40.413Z,100878.64
2018-12-29T20:38:08.765Z,100886.85
2018-12-29T20:40:37.171Z,100883.38
2018-12-29T20:43:05.605Z,100876.89
2018-12-29T20:45:33.997Z,100875.15
2018-12-29T20:48:02.362Z,100876.00
2018-12-29T20:50:30.836Z,100879.03
2018-12-29T20:52:59.446Z,100881.63
2018-12-29T20:55:27.964Z,100878.59
2018-12-29T20:57:56.335Z,100870.80
2018-12-29T21:00:25.158Z,100870.81
2018-12-29T21:02:54.167Z,100874.91
2018-12-29T21:05:22.823Z,100879.88
2018-12-29T21:07:52.538Z,100870.80
2018-12-29T21:10:22.915Z,100872.30
2018-12-29T21:12:51.758Z,100872.47
2018-12-29T21:15:20.450Z,100877.61
2018-12-29T21:17:49.187Z,100862.97
2018-12-29T21:20:17.782Z,100867.75
2018-12-29T21:22:46.851Z,100842.75
2018-12-29T21:25:17.669Z,100860.83
2018-12-29T21:27:46.792Z,100847.75
2018-12-29T21:30:15.910Z,100848.25
2018-12-29T21:32:47.952Z,100859.06
2018-12-29T21:35:16.892Z,100862.50
2018-12-29T21:38:01.591Z,100842.22
2018-12-29T21:40:29.967Z,100843.97
2018-12-29T21:42:58.448Z,100824.52
2018-12-29T21:45:27.165Z,100832.75
2018-12-29T21:47:55.549Z,100821.08
2018-12-29T21:50:25.919Z,100833.98
2018-12-29T21:52:55.208Z,100834.45
2018-12-29T21:55:23.988Z,100830.99
2018-12-29T21:57:52.455Z,100837.89
2018-12-29T22:00:20.829Z,100843.52
2018-12-29T22:02:49.302Z,100836.19
2018-12-29T22:05:17.655Z,100828.87
2018-12-29T22:07:46.086Z,100848.23
2018-12-29T22:10:14.523Z,100847.42
2018-12-29T22:12:42.928Z,100840.10
2018-12-29T22:15:11.363Z,100845.72
2018-12-29T22:17:39.749Z,100843.57
2018-12-29T22:20:08.451Z,100840.98
2018-12-29T22:22:36.889Z,100835.35
2018-12-29T22:25:05.621Z,100822.40
2018-12-29T22:27:34.136Z,100827.34
2018-12-29T22:30:02.611Z,100821.73
2018-12-29T22:32:30.971Z,100832.08
2018-12-29T22:34:59.448Z,100823.80
2018-12-29T22:37:27.905Z,100829.98
2018-12-29T22:39:56.328Z,100831.82
2018-12-29T22:42:24.769Z,100822.33
2018-12-29T22:44:53.228Z,100822.38
2018-12-29T22:47:21.908Z,100825.38
2018-12-29T22:49:50.374Z,100832.30
2018-12-29T22:52:18.738Z,100851.30
2018-12-29T22:54:47.203Z,100844.41
2018-12-29T22:57:15.566Z,100845.67
2018-12-29T22:59:44.077Z,100852.59
2018-12-29T23:02:12.595Z,100855.19
2018-12-29T23:04:41.162Z,100849.56
2018-12-29T23:07:09.820Z,100847.85
2018-12-29T23:09:38.298Z,100843.95
2018-12-29T23:12:06.971Z,100848.26
2018-12-29T23:14:35.478Z,100844.81
2018-12-29T23:17:04.494Z,100838.77
2018-12-29T23:19:34.497Z,100843.95
2018-12-29T23:22:02.933Z,100847.41
2018-12-29T23:24:31.301Z,100856.03
2018-12-29T23:26:59.714Z,100844.38
2018-12-29T23:29:28.153Z,100838.34
2018-12-29T23:31:56.555Z,100846.96
2018-12-29T23:34:25.462Z,100855.19
2018-12-29T23:36:53.955Z,100838.78
2018-12-29T23:39:22.412Z,100859.92
2018-12-29T23:41:51.372Z,100850.44
2018-12-29T23:44:19.751Z,100839.63
2018-12-29T23:46:48.321Z,100829.25
2018-12-29T23:49:16.681Z,100831.41
2018-12-29T23:51:45.350Z,100836.63
2018-12-29T23:54:13.789Z,100827.56
2018-12-29T23:56:42.558Z,100823.63
2018-12-29T23:59:11.419Z,100826.22
